sensor_id;sensor_type;location;lat;lon;timestamp;P1;durP1;ratioP1;P2;durP2;ratioP2
6755;SDS011;3415;51.148;7.014;2023-07-22T00:00:24;6.60;;;4.30;;
6755;SDS011;3415;51.148;7.014;2023-07-22T00:02:51;6.27;;;4.17;;
6755;SDS011;3415;51.148;7.014;2023-07-22T00:05:19;6.57;;;4.30;;
6755;SDS011;3415;51.148;7.014;2023-07-22T00:07:48;6.20;;;3.93;;
6755;SDS011;3415;51.148;7.014;2023-07-22T00:10:16;7.40;;;4.50;;
6755;SDS011;3415;51.148;7.014;2023-07-22T00:12:43;7.30;;;4.30;;
6755;SDS011;3415;51.148;7.014;2023-07-22T00:15:10;10.13;;;4.63;;
6755;SDS011;3415;51.148;7.014;2023-07-22T00:17:38;8.60;;;4.50;;
6755;SDS011;3415;51.148;7.014;2023-07-22T00:20:05;6.60;;;4.97;;
6755;SDS011;3415;51.148;7.014;2023-07-22T00:22:37;6.10;;;3.93;;
6755;SDS011;3415;51.148;7.014;2023-07-22T00:25:06;6.40;;;4.10;;
6755;SDS011;3415;51.148;7.014;2023-07-22T00:27:35;7.47;;;4.53;;
6755;SDS011;3415;51.148;7.014;2023-07-22T00:30:03;6.13;;;4.50;;
6755;SDS011;3415;51.148;7.014;2023-07-22T00:32:31;6.07;;;4.23;;
6755;SDS011;3415;51.148;7.014;2023-07-22T00:34:58;7.73;;;4.87;;
6755;SDS011;3415;51.148;7.014;2023-07-22T00:37:25;6.30;;;4.30;;
6755;SDS011;3415;51.148;7.014;2023-07-22T00:39:54;8.03;;;4.40;;
6755;SDS011;3415;51.148;7.014;2023-07-22T00:42:21;9.97;;;4.53;;
6755;SDS011;3415;51.148;7.014;2023-07-22T00:44:48;7.20;;;4.00;;
6755;SDS011;3415;51.148;7.014;2023-07-22T00:47:16;7.83;;;3.83;;
6755;SDS011;3415;51.148;7.014;2023-07-22T00:49:44;5.93;;;4.20;;
6755;SDS011;3415;51.148;7.014;2023-07-22T00:52:13;5.33;;;3.80;;
6755;SDS011;3415;51.148;7.014;2023-07-22T00:54:41;7.10;;;4.63;;
6755;SDS011;3415;51.148;7.014;2023-07-22T00:57:10;7.30;;;4.40;;
6755;SDS011;3415;51.148;7.014;2023-07-22T00:59:38;8.00;;;4.90;;
6755;SDS011;3415;51.148;7.014;2023-07-22T01:02:06;8.10;;;4.47;;
6755;SDS011;3415;51.148;7.014;2023-07-22T01:04:33;6.43;;;4.27;;
6755;SDS011;3415;51.148;7.014;2023-07-22T01:07:01;7.30;;;4.87;;
6755;SDS011;3415;51.148;7.014;2023-07-22T01:09:33;6.10;;;4.40;;
6755;SDS011;3415;51.148;7.014;2023-07-22T01:12:02;6.57;;;4.23;;
6755;SDS011;3415;51.148;7.014;2023-07-22T01:14:32;7.67;;;4.90;;
6755;SDS011;3415;51.148;7.014;2023-07-22T01:16:59;8.07;;;4.67;;
6755;SDS011;3415;51.148;7.014;2023-07-22T01:19:28;11.00;;;4.37;;
6755;SDS011;3415;51.148;7.014;2023-07-22T01:21:56;7.27;;;4.50;;
6755;SDS011;3415;51.148;7.014;2023-07-22T01:24:25;11.77;;;5.80;;
6755;SDS011;3415;51.148;7.014;2023-07-22T01:26:52;9.23;;;5.77;;
6755;SDS011;3415;51.148;7.014;2023-07-22T01:29:19;8.67;;;4.17;;
6755;SDS011;3415;51.148;7.014;2023-07-22T01:31:50;8.00;;;4.93;;
6755;SDS011;3415;51.148;7.014;2023-07-22T01:34:19;6.23;;;4.70;;
6755;SDS011;3415;51.148;7.014;2023-07-22T01:36:49;8.63;;;4.30;;
6755;SDS011;3415;51.148;7.014;2023-07-22T01:39:17;5.57;;;4.20;;
6755;SDS011;3415;51.148;7.014;2023-07-22T01:41:45;6.90;;;4.80;;
6755;SDS011;3415;51.148;7.014;2023-07-22T01:44:12;14.37;;;5.67;;
6755;SDS011;3415;51.148;7.014;2023-07-22T01:46:40;8.63;;;5.00;;
6755;SDS011;3415;51.148;7.014;2023-07-22T01:49:09;8.43;;;5.00;;
6755;SDS011;3415;51.148;7.014;2023-07-22T01:51:37;5.33;;;4.13;;
6755;SDS011;3415;51.148;7.014;2023-07-22T01:54:05;9.60;;;4.80;;
6755;SDS011;3415;51.148;7.014;2023-07-22T01:56:34;8.00;;;4.77;;
6755;SDS011;3415;51.148;7.014;2023-07-22T01:59:03;6.53;;;4.27;;
6755;SDS011;3415;51.148;7.014;2023-07-22T02:01:30;9.03;;;5.60;;
6755;SDS011;3415;51.148;7.014;2023-07-22T02:03:57;6.83;;;4.67;;
6755;SDS011;3415;51.148;7.014;2023-07-22T02:06:24;11.70;;;5.17;;
6755;SDS011;3415;51.148;7.014;2023-07-22T02:08:53;7.93;;;4.20;;
6755;SDS011;3415;51.148;7.014;2023-07-22T02:11:20;8.13;;;4.30;;
6755;SDS011;3415;51.148;7.014;2023-07-22T02:13:48;8.57;;;5.27;;
6755;SDS011;3415;51.148;7.014;2023-07-22T02:16:16;8.30;;;5.67;;
6755;SDS011;3415;51.148;7.014;2023-07-22T02:18:43;9.03;;;4.77;;
6755;SDS011;3415;51.148;7.014;2023-07-22T02:21:10;10.80;;;4.73;;
6755;SDS011;3415;51.148;7.014;2023-07-22T02:23:38;6.90;;;4.40;;
6755;SDS011;3415;51.148;7.014;2023-07-22T02:26:05;9.67;;;4.83;;
6755;SDS011;3415;51.148;7.014;2023-07-22T02:28:32;7.40;;;4.73;;
6755;SDS011;3415;51.148;7.014;2023-07-22T02:31:00;7.57;;;4.50;;
6755;SDS011;3415;51.148;7.014;2023-07-22T02:33:33;9.70;;;4.83;;
6755;SDS011;3415;51.148;7.014;2023-07-22T02:36:00;9.00;;;4.23;;
6755;SDS011;3415;51.148;7.014;2023-07-22T02:38:27;5.80;;;4.10;;
6755;SDS011;3415;51.148;7.014;2023-07-22T02:40:54;9.97;;;4.23;;
6755;SDS011;3415;51.148;7.014;2023-07-22T02:43:27;7.23;;;4.50;;
6755;SDS011;3415;51.148;7.014;2023-07-22T02:45:54;7.87;;;4.67;;
6755;SDS011;3415;51.148;7.014;2023-07-22T02:48:21;8.00;;;4.67;;
6755;SDS011;3415;51.148;7.014;2023-07-22T02:50:50;9.57;;;5.20;;
6755;SDS011;3415;51.148;7.014;2023-07-22T02:53:17;5.80;;;4.10;;
6755;SDS011;3415;51.148;7.014;2023-07-22T02:55:44;9.13;;;4.67;;
6755;SDS011;3415;51.148;7.014;2023-07-22T02:58:12;7.43;;;4.53;;
6755;SDS011;3415;51.148;7.014;2023-07-22T03:00:39;9.23;;;4.33;;
6755;SDS011;3415;51.148;7.014;2023-07-22T03:03:08;8.57;;;4.90;;
6755;SDS011;3415;51.148;7.014;2023-07-22T03:05:35;10.33;;;4.83;;
6755;SDS011;3415;51.148;7.014;2023-07-22T03:08:03;7.00;;;4.10;;
6755;SDS011;3415;51.148;7.014;2023-07-22T03:10:32;8.50;;;4.93;;
6755;SDS011;3415;51.148;7.014;2023-07-22T03:12:59;7.23;;;4.73;;
6755;SDS011;3415;51.148;7.014;2023-07-22T03:15:29;8.30;;;4.60;;
6755;SDS011;3415;51.148;7.014;2023-07-22T03:17:56;10.77;;;5.73;;
6755;SDS011;3415;51.148;7.014;2023-07-22T03:20:24;7.50;;;4.80;;
6755;SDS011;3415;51.148;7.014;2023-07-22T03:22:51;8.70;;;4.63;;
6755;SDS011;3415;51.148;7.014;2023-07-22T03:25:20;8.50;;;5.10;;
6755;SDS011;3415;51.148;7.014;2023-07-22T03:27:47;8.30;;;5.70;;
6755;SDS011;3415;51.148;7.014;2023-07-22T03:30:16;9.00;;;5.17;;
6755;SDS011;3415;51.148;7.014;2023-07-22T03:32:45;12.20;;;5.40;;
6755;SDS011;3415;51.148;7.014;2023-07-22T03:35:14;9.40;;;5.53;;
6755;SDS011;3415;51.148;7.014;2023-07-22T03:37:41;8.53;;;5.67;;
6755;SDS011;3415;51.148;7.014;2023-07-22T03:40:09;9.50;;;5.47;;
6755;SDS011;3415;51.148;7.014;2023-07-22T03:42:45;7.57;;;4.77;;
6755;SDS011;3415;51.148;7.014;2023-07-22T03:45:13;8.57;;;4.23;;
6755;SDS011;3415;51.148;7.014;2023-07-22T03:47:40;9.10;;;5.40;;
6755;SDS011;3415;51.148;7.014;2023-07-22T03:50:07;10.00;;;5.50;;
6755;SDS011;3415;51.148;7.014;2023-07-22T03:52:35;9.63;;;5.80;;
6755;SDS011;3415;51.148;7.014;2023-07-22T03:55:02;6.43;;;4.53;;
6755;SDS011;3415;51.148;7.014;2023-07-22T03:57:30;8.50;;;4.70;;
6755;SDS011;3415;51.148;7.014;2023-07-22T03:59:59;8.00;;;4.70;;
6755;SDS011;3415;51.148;7.014;2023-07-22T04:02:26;7.63;;;4.70;;
6755;SDS011;3415;51.148;7.014;2023-07-22T04:04:53;10.17;;;5.60;;
6755;SDS011;3415;51.148;7.014;2023-07-22T04:07:21;11.10;;;5.93;;
6755;SDS011;3415;51.148;7.014;2023-07-22T04:09:49;7.53;;;5.00;;
6755;SDS011;3415;51.148;7.014;2023-07-22T04:12:16;10.30;;;5.10;;
6755;SDS011;3415;51.148;7.014;2023-07-22T04:14:43;8.00;;;4.97;;
6755;SDS011;3415;51.148;7.014;2023-07-22T04:17:12;7.90;;;4.90;;
6755;SDS011;3415;51.148;7.014;2023-07-22T04:19:40;9.10;;;5.10;;
6755;SDS011;3415;51.148;7.014;2023-07-22T04:22:07;8.27;;;5.20;;
6755;SDS011;3415;51.148;7.014;2023-07-22T04:24:34;7.90;;;4.97;;
6755;SDS011;3415;51.148;7.014;2023-07-22T04:27:02;7.00;;;5.10;;
6755;SDS011;3415;51.148;7.014;2023-07-22T04:29:29;12.60;;;5.83;;
6755;SDS011;3415;51.148;7.014;2023-07-22T04:31:57;10.03;;;5.00;;
6755;SDS011;3415;51.148;7.014;2023-07-22T04:34:27;7.77;;;5.40;;
6755;SDS011;3415;51.148;7.014;2023-07-22T04:36:55;7.30;;;5.20;;
6755;SDS011;3415;51.148;7.014;2023-07-22T04:39:22;12.50;;;4.67;;
6755;SDS011;3415;51.148;7.014;2023-07-22T04:41:50;9.30;;;5.33;;
6755;SDS011;3415;51.148;7.014;2023-07-22T04:44:17;8.90;;;5.40;;
6755;SDS011;3415;51.148;7.014;2023-07-22T04:46:44;8.90;;;4.90;;
6755;SDS011;3415;51.148;7.014;2023-07-22T04:49:12;8.80;;;5.40;;
6755;SDS011;3415;51.148;7.014;2023-07-22T04:51:43;9.93;;;5.70;;
6755;SDS011;3415;51.148;7.014;2023-07-22T04:54:11;11.03;;;4.77;;
6755;SDS011;3415;51.148;7.014;2023-07-22T04:56:38;9.67;;;5.63;;
6755;SDS011;3415;51.148;7.014;2023-07-22T04:59:06;5.83;;;3.90;;
6755;SDS011;3415;51.148;7.014;2023-07-22T05:01:34;6.50;;;4.33;;
6755;SDS011;3415;51.148;7.014;2023-07-22T05:04:02;9.23;;;4.83;;
6755;SDS011;3415;51.148;7.014;2023-07-22T05:06:29;9.03;;;5.33;;
6755;SDS011;3415;51.148;7.014;2023-07-22T05:08:58;9.63;;;5.43;;
6755;SDS011;3415;51.148;7.014;2023-07-22T05:11:25;11.10;;;6.50;;
6755;SDS011;3415;51.148;7.014;2023-07-22T05:13:52;10.60;;;5.53;;
6755;SDS011;3415;51.148;7.014;2023-07-22T05:16:19;7.27;;;5.20;;
6755;SDS011;3415;51.148;7.014;2023-07-22T05:18:46;10.73;;;5.27;;
6755;SDS011;3415;51.148;7.014;2023-07-22T05:21:14;8.00;;;5.20;;
6755;SDS011;3415;51.148;7.014;2023-07-22T05:23:41;9.70;;;4.67;;
6755;SDS011;3415;51.148;7.014;2023-07-22T05:26:09;8.93;;;5.30;;
6755;SDS011;3415;51.148;7.014;2023-07-22T05:28:36;7.80;;;4.63;;
6755;SDS011;3415;51.148;7.014;2023-07-22T05:31:03;8.43;;;5.33;;
6755;SDS011;3415;51.148;7.014;2023-07-22T05:33:30;7.27;;;4.47;;
6755;SDS011;3415;51.148;7.014;2023-07-22T05:35:57;7.40;;;4.80;;
6755;SDS011;3415;51.148;7.014;2023-07-22T05:38:24;11.80;;;6.13;;
6755;SDS011;3415;51.148;7.014;2023-07-22T05:40:51;9.83;;;4.80;;
6755;SDS011;3415;51.148;7.014;2023-07-22T05:43:20;8.07;;;4.70;;
6755;SDS011;3415;51.148;7.014;2023-07-22T05:45:47;8.80;;;5.30;;
6755;SDS011;3415;51.148;7.014;2023-07-22T05:48:15;8.17;;;5.27;;
6755;SDS011;3415;51.148;7.014;2023-07-22T05:50:42;7.53;;;4.93;;
6755;SDS011;3415;51.148;7.014;2023-07-22T05:53:09;9.57;;;5.17;;
6755;SDS011;3415;51.148;7.014;2023-07-22T05:55:36;10.27;;;4.47;;
6755;SDS011;3415;51.148;7.014;2023-07-22T05:58:04;9.40;;;5.20;;
6755;SDS011;3415;51.148;7.014;2023-07-22T06:00:33;11.67;;;5.93;;
6755;SDS011;3415;51.148;7.014;2023-07-22T06:03:00;7.13;;;4.57;;
6755;SDS011;3415;51.148;7.014;2023-07-22T06:05:27;7.47;;;4.70;;
6755;SDS011;3415;51.148;7.014;2023-07-22T06:07:54;10.87;;;4.53;;
6755;SDS011;3415;51.148;7.014;2023-07-22T06:10:22;6.77;;;4.70;;
6755;SDS011;3415;51.148;7.014;2023-07-22T06:12:49;11.00;;;4.97;;
6755;SDS011;3415;51.148;7.014;2023-07-22T06:15:16;7.63;;;4.90;;
6755;SDS011;3415;51.148;7.014;2023-07-22T06:17:45;8.20;;;4.70;;
6755;SDS011;3415;51.148;7.014;2023-07-22T06:20:12;4.43;;;3.77;;
6755;SDS011;3415;51.148;7.014;2023-07-22T06:22:39;8.67;;;4.60;;
6755;SDS011;3415;51.148;7.014;2023-07-22T06:25:06;8.20;;;5.00;;
6755;SDS011;3415;51.148;7.014;2023-07-22T06:27:34;15.57;;;5.40;;
6755;SDS011;3415;51.148;7.014;2023-07-22T06:30:01;7.37;;;4.77;;
6755;SDS011;3415;51.148;7.014;2023-07-22T06:32:29;6.53;;;4.10;;
6755;SDS011;3415;51.148;7.014;2023-07-22T06:34:58;6.77;;;4.43;;
6755;SDS011;3415;51.148;7.014;2023-07-22T06:37:25;9.50;;;4.73;;
6755;SDS011;3415;51.148;7.014;2023-07-22T06:39:52;6.37;;;4.53;;
6755;SDS011;3415;51.148;7.014;2023-07-22T06:42:19;7.33;;;4.50;;
6755;SDS011;3415;51.148;7.014;2023-07-22T06:44:47;6.00;;;4.03;;
6755;SDS011;3415;51.148;7.014;2023-07-22T06:47:14;7.77;;;4.60;;
6755;SDS011;3415;51.148;7.014;2023-07-22T06:49:41;8.50;;;4.87;;
6755;SDS011;3415;51.148;7.014;2023-07-22T06:52:10;8.20;;;4.60;;
6755;SDS011;3415;51.148;7.014;2023-07-22T06:54:37;8.70;;;4.47;;
6755;SDS011;3415;51.148;7.014;2023-07-22T06:57:04;6.97;;;4.23;;
6755;SDS011;3415;51.148;7.014;2023-07-22T06:59:32;7.07;;;4.30;;
6755;SDS011;3415;51.148;7.014;2023-07-22T07:01:59;10.23;;;4.50;;
6755;SDS011;3415;51.148;7.014;2023-07-22T07:04:26;8.00;;;5.40;;
6755;SDS011;3415;51.148;7.014;2023-07-22T07:06:53;8.30;;;4.43;;
6755;SDS011;3415;51.148;7.014;2023-07-22T07:09:22;8.27;;;5.20;;
6755;SDS011;3415;51.148;7.014;2023-07-22T07:11:49;6.57;;;4.47;;
6755;SDS011;3415;51.148;7.014;2023-07-22T07:14:16;7.63;;;4.80;;
6755;SDS011;3415;51.148;7.014;2023-07-22T07:16:43;10.67;;;5.27;;
6755;SDS011;3415;51.148;7.014;2023-07-22T07:19:11;13.13;;;5.30;;
6755;SDS011;3415;51.148;7.014;2023-07-22T07:21:37;7.00;;;4.50;;
6755;SDS011;3415;51.148;7.014;2023-07-22T07:24:05;6.97;;;4.20;;
6755;SDS011;3415;51.148;7.014;2023-07-22T07:26:33;6.80;;;4.30;;
6755;SDS011;3415;51.148;7.014;2023-07-22T07:29:00;7.40;;;4.90;;
6755;SDS011;3415;51.148;7.014;2023-07-22T07:31:27;6.53;;;4.20;;
6755;SDS011;3415;51.148;7.014;2023-07-22T07:33:54;7.90;;;5.00;;
6755;SDS011;3415;51.148;7.014;2023-07-22T07:36:21;7.97;;;5.20;;
6755;SDS011;3415;51.148;7.014;2023-07-22T07:38:48;5.47;;;3.90;;
6755;SDS011;3415;51.148;7.014;2023-07-22T07:41:15;7.77;;;5.10;;
6755;SDS011;3415;51.148;7.014;2023-07-22T07:43:44;7.57;;;4.07;;
6755;SDS011;3415;51.148;7.014;2023-07-22T07:46:15;7.43;;;4.20;;
6755;SDS011;3415;51.148;7.014;2023-07-22T07:48:45;7.57;;;5.30;;
6755;SDS011;3415;51.148;7.014;2023-07-22T07:51:13;7.13;;;5.00;;
6755;SDS011;3415;51.148;7.014;2023-07-22T07:53:41;7.27;;;4.07;;
6755;SDS011;3415;51.148;7.014;2023-07-22T07:56:09;7.27;;;4.33;;
6755;SDS011;3415;51.148;7.014;2023-07-22T07:58:37;7.30;;;4.73;;
6755;SDS011;3415;51.148;7.014;2023-07-22T08:01:05;10.33;;;4.63;;
6755;SDS011;3415;51.148;7.014;2023-07-22T08:03:33;7.07;;;4.90;;
6755;SDS011;3415;51.148;7.014;2023-07-22T08:06:01;8.60;;;4.80;;
6755;SDS011;3415;51.148;7.014;2023-07-22T08:08:29;6.80;;;4.33;;
6755;SDS011;3415;51.148;7.014;2023-07-22T08:11:00;10.27;;;4.30;;
6755;SDS011;3415;51.148;7.014;2023-07-22T08:13:28;8.20;;;4.43;;
6755;SDS011;3415;51.148;7.014;2023-07-22T08:15:56;6.20;;;4.20;;
6755;SDS011;3415;51.148;7.014;2023-07-22T08:18:25;7.80;;;4.10;;
6755;SDS011;3415;51.148;7.014;2023-07-22T08:20:52;5.90;;;3.87;;
6755;SDS011;3415;51.148;7.014;2023-07-22T08:23:19;5.83;;;4.03;;
6755;SDS011;3415;51.148;7.014;2023-07-22T08:25:46;7.50;;;3.80;;
6755;SDS011;3415;51.148;7.014;2023-07-22T08:28:14;6.03;;;4.70;;
6755;SDS011;3415;51.148;7.014;2023-07-22T08:30:41;6.83;;;4.87;;
6755;SDS011;3415;51.148;7.014;2023-07-22T08:33:08;7.87;;;4.37;;
6755;SDS011;3415;51.148;7.014;2023-07-22T08:35:37;5.50;;;4.20;;
6755;SDS011;3415;51.148;7.014;2023-07-22T08:38:05;8.47;;;3.60;;
6755;SDS011;3415;51.148;7.014;2023-07-22T08:40:33;6.77;;;4.60;;
6755;SDS011;3415;51.148;7.014;2023-07-22T08:43:01;6.80;;;4.43;;
6755;SDS011;3415;51.148;7.014;2023-07-22T08:45:30;9.10;;;5.20;;
6755;SDS011;3415;51.148;7.014;2023-07-22T08:48:01;6.77;;;4.73;;
6755;SDS011;3415;51.148;7.014;2023-07-22T08:50:33;8.10;;;4.90;;
6755;SDS011;3415;51.148;7.014;2023-07-22T08:53:06;8.30;;;4.60;;
6755;SDS011;3415;51.148;7.014;2023-07-22T08:55:34;7.90;;;4.80;;
6755;SDS011;3415;51.148;7.014;2023-07-22T08:58:01;8.70;;;5.30;;
6755;SDS011;3415;51.148;7.014;2023-07-22T09:00:28;11.60;;;5.00;;
6755;SDS011;3415;51.148;7.014;2023-07-22T09:02:56;8.37;;;4.60;;
6755;SDS011;3415;51.148;7.014;2023-07-22T09:05:25;6.23;;;4.73;;
6755;SDS011;3415;51.148;7.014;2023-07-22T09:07:53;8.20;;;4.47;;
6755;SDS011;3415;51.148;7.014;2023-07-22T09:10:21;6.50;;;4.67;;
6755;SDS011;3415;51.148;7.014;2023-07-22T09:12:49;7.50;;;4.83;;
6755;SDS011;3415;51.148;7.014;2023-07-22T09:15:16;5.23;;;4.03;;
6755;SDS011;3415;51.148;7.014;2023-07-22T09:17:44;6.77;;;4.37;;
6755;SDS011;3415;51.148;7.014;2023-07-22T09:20:12;7.40;;;3.80;;
6755;SDS011;3415;51.148;7.014;2023-07-22T09:22:43;5.00;;;3.80;;
6755;SDS011;3415;51.148;7.014;2023-07-22T09:25:16;12.30;;;3.90;;
6755;SDS011;3415;51.148;7.014;2023-07-22T09:27:44;5.47;;;3.57;;
6755;SDS011;3415;51.148;7.014;2023-07-22T09:30:21;8.00;;;4.07;;
6755;SDS011;3415;51.148;7.014;2023-07-22T09:32:51;8.87;;;3.90;;
6755;SDS011;3415;51.148;7.014;2023-07-22T09:35:21;5.20;;;3.60;;
6755;SDS011;3415;51.148;7.014;2023-07-22T09:37:50;4.73;;;3.30;;
6755;SDS011;3415;51.148;7.014;2023-07-22T09:40:20;6.40;;;3.53;;
6755;SDS011;3415;51.148;7.014;2023-07-22T09:42:50;3.53;;;3.13;;
6755;SDS011;3415;51.148;7.014;2023-07-22T09:45:18;4.13;;;3.10;;
6755;SDS011;3415;51.148;7.014;2023-07-22T09:47:49;10.40;;;3.70;;
6755;SDS011;3415;51.148;7.014;2023-07-22T09:50:18;8.43;;;4.70;;
6755;SDS011;3415;51.148;7.014;2023-07-22T09:52:47;5.90;;;3.40;;
6755;SDS011;3415;51.148;7.014;2023-07-22T09:55:17;5.97;;;4.10;;
6755;SDS011;3415;51.148;7.014;2023-07-22T09:57:50;5.90;;;3.50;;
6755;SDS011;3415;51.148;7.014;2023-07-22T10:00:20;6.50;;;3.90;;
6755;SDS011;3415;51.148;7.014;2023-07-22T10:02:51;4.87;;;2.97;;
6755;SDS011;3415;51.148;7.014;2023-07-22T10:05:19;12.63;;;3.67;;
6755;SDS011;3415;51.148;7.014;2023-07-22T10:07:47;4.77;;;3.20;;
6755;SDS011;3415;51.148;7.014;2023-07-22T10:10:18;6.00;;;3.40;;
6755;SDS011;3415;51.148;7.014;2023-07-22T10:12:49;3.63;;;2.83;;
6755;SDS011;3415;51.148;7.014;2023-07-22T10:15:16;4.47;;;3.17;;
6755;SDS011;3415;51.148;7.014;2023-07-22T10:17:44;4.53;;;2.90;;
6755;SDS011;3415;51.148;7.014;2023-07-22T10:20:12;4.30;;;2.97;;
6755;SDS011;3415;51.148;7.014;2023-07-22T10:22:41;3.37;;;2.37;;
6755;SDS011;3415;51.148;7.014;2023-07-22T10:25:10;2.93;;;2.70;;
6755;SDS011;3415;51.148;7.014;2023-07-22T10:27:43;4.20;;;2.77;;
6755;SDS011;3415;51.148;7.014;2023-07-22T10:30:11;2.87;;;2.50;;
6755;SDS011;3415;51.148;7.014;2023-07-22T10:32:41;5.30;;;2.93;;
6755;SDS011;3415;51.148;7.014;2023-07-22T10:35:12;3.07;;;2.50;;
6755;SDS011;3415;51.148;7.014;2023-07-22T10:37:49;2.73;;;2.20;;
6755;SDS011;3415;51.148;7.014;2023-07-22T10:40:19;3.97;;;2.50;;
6755;SDS011;3415;51.148;7.014;2023-07-22T10:42:56;3.00;;;2.60;;
6755;SDS011;3415;51.148;7.014;2023-07-22T10:45:26;2.37;;;2.17;;
6755;SDS011;3415;51.148;7.014;2023-07-22T10:48:00;2.97;;;2.33;;
6755;SDS011;3415;51.148;7.014;2023-07-22T10:50:39;3.13;;;2.30;;
6755;SDS011;3415;51.148;7.014;2023-07-22T10:53:11;3.20;;;2.50;;
6755;SDS011;3415;51.148;7.014;2023-07-22T10:58:54;2.80;;;2.40;;
6755;SDS011;3415;51.148;7.014;2023-07-22T11:01:32;2.23;;;2.03;;
6755;SDS011;3415;51.148;7.014;2023-07-22T11:04:02;4.50;;;2.50;;
6755;SDS011;3415;51.148;7.014;2023-07-22T11:06:36;4.43;;;2.33;;
6755;SDS011;3415;51.148;7.014;2023-07-22T11:09:04;3.13;;;2.80;;
6755;SDS011;3415;51.148;7.014;2023-07-22T11:11:35;2.37;;;2.17;;
6755;SDS011;3415;51.148;7.014;2023-07-22T11:14:15;3.33;;;2.50;;
6755;SDS011;3415;51.148;7.014;2023-07-22T11:16:43;2.50;;;2.30;;
6755;SDS011;3415;51.148;7.014;2023-07-22T11:19:12;4.80;;;2.40;;
6755;SDS011;3415;51.148;7.014;2023-07-22T11:21:40;2.50;;;2.30;;
6755;SDS011;3415;51.148;7.014;2023-07-22T11:24:07;3.20;;;2.10;;
6755;SDS011;3415;51.148;7.014;2023-07-22T11:26:34;3.63;;;2.17;;
6755;SDS011;3415;51.148;7.014;2023-07-22T11:29:03;2.40;;;2.20;;
6755;SDS011;3415;51.148;7.014;2023-07-22T11:31:33;2.30;;;2.10;;
6755;SDS011;3415;51.148;7.014;2023-07-22T11:34:02;2.80;;;2.40;;
6755;SDS011;3415;51.148;7.014;2023-07-22T11:36:29;2.57;;;2.13;;
6755;SDS011;3415;51.148;7.014;2023-07-22T11:39:01;3.50;;;2.37;;
6755;SDS011;3415;51.148;7.014;2023-07-22T11:41:29;2.13;;;1.90;;
6755;SDS011;3415;51.148;7.014;2023-07-22T11:43:57;2.50;;;2.00;;
6755;SDS011;3415;51.148;7.014;2023-07-22T11:46:24;2.23;;;1.87;;
6755;SDS011;3415;51.148;7.014;2023-07-22T11:48:53;2.30;;;1.93;;
6755;SDS011;3415;51.148;7.014;2023-07-22T11:51:22;3.27;;;2.43;;
6755;SDS011;3415;51.148;7.014;2023-07-22T11:53:51;3.50;;;2.63;;
6755;SDS011;3415;51.148;7.014;2023-07-22T11:56:23;2.53;;;2.20;;
6755;SDS011;3415;51.148;7.014;2023-07-22T11:58:52;3.03;;;1.80;;
6755;SDS011;3415;51.148;7.014;2023-07-22T12:01:21;2.43;;;2.20;;
6755;SDS011;3415;51.148;7.014;2023-07-22T12:03:49;3.67;;;2.33;;
6755;SDS011;3415;51.148;7.014;2023-07-22T12:06:24;11.53;;;2.10;;
6755;SDS011;3415;51.148;7.014;2023-07-22T12:08:52;1.93;;;1.73;;
6755;SDS011;3415;51.148;7.014;2023-07-22T12:11:20;2.57;;;1.83;;
6755;SDS011;3415;51.148;7.014;2023-07-22T12:13:49;2.70;;;2.13;;
6755;SDS011;3415;51.148;7.014;2023-07-22T12:16:34;2.30;;;2.10;;
6755;SDS011;3415;51.148;7.014;2023-07-22T12:19:03;3.30;;;2.13;;
6755;SDS011;3415;51.148;7.014;2023-07-22T12:21:31;2.30;;;2.10;;
6755;SDS011;3415;51.148;7.014;2023-07-22T12:23:59;3.63;;;2.27;;
6755;SDS011;3415;51.148;7.014;2023-07-22T12:26:26;2.93;;;2.23;;
6755;SDS011;3415;51.148;7.014;2023-07-22T12:28:53;3.03;;;2.00;;
6755;SDS011;3415;51.148;7.014;2023-07-22T12:31:20;4.50;;;2.20;;
6755;SDS011;3415;51.148;7.014;2023-07-22T12:33:47;2.90;;;2.40;;
6755;SDS011;3415;51.148;7.014;2023-07-22T12:36:16;3.30;;;2.07;;
6755;SDS011;3415;51.148;7.014;2023-07-22T12:38:43;2.00;;;1.73;;
6755;SDS011;3415;51.148;7.014;2023-07-22T12:41:10;5.03;;;2.27;;
6755;SDS011;3415;51.148;7.014;2023-07-22T12:43:37;2.60;;;2.27;;
6755;SDS011;3415;51.148;7.014;2023-07-22T12:46:04;2.50;;;2.30;;
6755;SDS011;3415;51.148;7.014;2023-07-22T12:48:31;2.13;;;1.80;;
6755;SDS011;3415;51.148;7.014;2023-07-22T12:50:58;2.20;;;2.00;;
6755;SDS011;3415;51.148;7.014;2023-07-22T12:53:27;5.67;;;1.60;;
6755;SDS011;3415;51.148;7.014;2023-07-22T12:55:54;3.83;;;2.50;;
6755;SDS011;3415;51.148;7.014;2023-07-22T12:58:21;4.07;;;2.20;;
6755;SDS011;3415;51.148;7.014;2023-07-22T13:00:48;3.30;;;2.20;;
6755;SDS011;3415;51.148;7.014;2023-07-22T13:03:15;2.10;;;1.90;;
6755;SDS011;3415;51.148;7.014;2023-07-22T13:05:42;1.70;;;1.53;;
6755;SDS011;3415;51.148;7.014;2023-07-22T13:08:09;2.30;;;2.10;;
6755;SDS011;3415;51.148;7.014;2023-07-22T13:10:38;4.83;;;2.00;;
6755;SDS011;3415;51.148;7.014;2023-07-22T13:13:08;2.60;;;2.27;;
6755;SDS011;3415;51.148;7.014;2023-07-22T13:15:35;2.67;;;2.03;;
6755;SDS011;3415;51.148;7.014;2023-07-22T13:18:02;3.60;;;2.10;;
6755;SDS011;3415;51.148;7.014;2023-07-22T13:20:29;3.17;;;2.03;;
6755;SDS011;3415;51.148;7.014;2023-07-22T13:22:56;1.83;;;1.43;;
6755;SDS011;3415;51.148;7.014;2023-07-22T13:25:23;1.80;;;1.57;;
6755;SDS011;3415;51.148;7.014;2023-07-22T13:27:52;1.93;;;1.60;;
6755;SDS011;3415;51.148;7.014;2023-07-22T13:30:18;3.87;;;1.77;;
6755;SDS011;3415;51.148;7.014;2023-07-22T13:32:45;1.67;;;1.57;;
6755;SDS011;3415;51.148;7.014;2023-07-22T13:35:12;3.17;;;1.77;;
6755;SDS011;3415;51.148;7.014;2023-07-22T13:37:39;1.87;;;1.70;;
6755;SDS011;3415;51.148;7.014;2023-07-22T13:40:06;1.90;;;1.70;;
6755;SDS011;3415;51.148;7.014;2023-07-22T13:42:36;2.10;;;1.90;;
6755;SDS011;3415;51.148;7.014;2023-07-22T13:45:05;2.20;;;1.83;;
6755;SDS011;3415;51.148;7.014;2023-07-22T13:47:33;3.70;;;2.00;;
6755;SDS011;3415;51.148;7.014;2023-07-22T13:50:01;2.40;;;2.20;;
6755;SDS011;3415;51.148;7.014;2023-07-22T13:52:28;3.03;;;2.00;;
6755;SDS011;3415;51.148;7.014;2023-07-22T13:54:55;1.57;;;1.47;;
6755;SDS011;3415;51.148;7.014;2023-07-22T13:57:22;2.47;;;2.10;;
6755;SDS011;3415;51.148;7.014;2023-07-22T13:59:49;2.33;;;2.20;;
6755;SDS011;3415;51.148;7.014;2023-07-22T14:02:17;2.80;;;2.23;;
6755;SDS011;3415;51.148;7.014;2023-07-22T14:04:45;4.87;;;2.50;;
6755;SDS011;3415;51.148;7.014;2023-07-22T14:07:12;3.10;;;2.33;;
6755;SDS011;3415;51.148;7.014;2023-07-22T14:09:39;3.87;;;2.07;;
6755;SDS011;3415;51.148;7.014;2023-07-22T14:12:06;3.53;;;1.97;;
6755;SDS011;3415;51.148;7.014;2023-07-22T14:14:34;2.37;;;2.17;;
6755;SDS011;3415;51.148;7.014;2023-07-22T14:17:01;3.37;;;1.97;;
6755;SDS011;3415;51.148;7.014;2023-07-22T14:19:30;3.10;;;2.50;;
6755;SDS011;3415;51.148;7.014;2023-07-22T14:21:57;5.53;;;2.37;;
6755;SDS011;3415;51.148;7.014;2023-07-22T14:24:24;2.13;;;1.93;;
6755;SDS011;3415;51.148;7.014;2023-07-22T14:26:52;4.53;;;2.60;;
6755;SDS011;3415;51.148;7.014;2023-07-22T14:29:19;2.40;;;2.13;;
6755;SDS011;3415;51.148;7.014;2023-07-22T14:31:46;3.87;;;1.90;;
6755;SDS011;3415;51.148;7.014;2023-07-22T14:34:13;3.10;;;1.93;;
6755;SDS011;3415;51.148;7.014;2023-07-22T14:36:42;3.77;;;2.60;;
6755;SDS011;3415;51.148;7.014;2023-07-22T14:39:09;3.43;;;2.40;;
6755;SDS011;3415;51.148;7.014;2023-07-22T14:41:36;4.00;;;2.57;;
6755;SDS011;3415;51.148;7.014;2023-07-22T14:44:03;2.60;;;2.40;;
6755;SDS011;3415;51.148;7.014;2023-07-22T14:46:30;4.43;;;3.33;;
6755;SDS011;3415;51.148;7.014;2023-07-22T14:48:57;2.47;;;2.27;;
6755;SDS011;3415;51.148;7.014;2023-07-22T14:51:25;3.17;;;2.40;;
6755;SDS011;3415;51.148;7.014;2023-07-22T14:53:54;3.63;;;3.13;;
6755;SDS011;3415;51.148;7.014;2023-07-22T14:56:20;3.30;;;2.63;;
6755;SDS011;3415;51.148;7.014;2023-07-22T14:58:47;3.67;;;3.10;;
6755;SDS011;3415;51.148;7.014;2023-07-22T15:01:15;3.47;;;2.33;;
6755;SDS011;3415;51.148;7.014;2023-07-22T15:03:42;4.13;;;2.60;;
6755;SDS011;3415;51.148;7.014;2023-07-22T15:06:09;4.20;;;2.50;;
6755;SDS011;3415;51.148;7.014;2023-07-22T15:08:36;4.27;;;2.60;;
6755;SDS011;3415;51.148;7.014;2023-07-22T15:11:04;3.40;;;2.40;;
6755;SDS011;3415;51.148;7.014;2023-07-22T15:13:32;4.30;;;2.70;;
6755;SDS011;3415;51.148;7.014;2023-07-22T15:15:59;3.30;;;2.37;;
6755;SDS011;3415;51.148;7.014;2023-07-22T15:18:27;3.97;;;2.63;;
6755;SDS011;3415;51.148;7.014;2023-07-22T15:20:54;3.90;;;2.90;;
6755;SDS011;3415;51.148;7.014;2023-07-22T15:23:21;3.20;;;2.47;;